Accueil
METAR-TAF:

METAR-TAF

Aéroports :

Aéroport de Nantes Atlantique

Nantes, France

latitude: 47-10N, longitude: 001-36W, altitude: 27 m

Observation

Le bulletin a été fait il y a 24 minutes, à 05:00 UTC
Vent 5 kt de nord-est, variant entre nord et est
Température 15°C
Humidité 72%
Pression 1022 hPa
Visibilité 10 km ou plus
pas de nuages en-dessous de 1500 mètres et pas de cumulonimbus.

METAR: LFRS 240500Z AUTO 05005KT 010V090 CAVOK 15/10 Q1022 NOSIG

Heure: 07:24 (05:24 UTC)

Prévision

Le bulletin a été fait il y a 6 heures et 24 minutes, à 23:00 UTC
Prévision valable du 24 à 00 UTC au 25 à 06 UTC
Vent 7 kt de nord-est
Visibilité 10 km ou plus
pas de nuages en-dessous de 1500 mètres et pas de cumulonimbus.
Temporairement
du 24 à 10 UTC au 24 à 18 UTC
Vent 11 kt de nord-est avec des rafales jusqu'à 22 kt

TAF: LFRS 232300Z 2400/2506 05007KT CAVOK TEMPO 2410/2418 05011G22KT

Observations et prévisions météorologiques de plus de 4000 aéroports (messages METAR et TAF).

Les stations disponibles sont représentées par des disques jaunes et rouges sur la carte.

Passer la souris dessus pour voir le nom de la station.

Cliquer dessus pour voir les observations et prévisions météorologiques.

Pour changer de carte: cliquez sur les boutons verts avec une croix noire pour zoomer, sur le bouton vert avec un tiret pour effectuer un zoom arrière, ou sur les flèches vertes pour les cartes adjacentes.


METAR-TAF: